sensor_id;sensor_type;location;lat;lon;timestamp;temperature;humidity
6102;DHT22;3081;50.584;7.032;2023-04-01T00:01:30;10.20;99.90
6102;DHT22;3081;50.584;7.032;2023-04-01T00:03:57;10.20;99.90
6102;DHT22;3081;50.584;7.032;2023-04-01T00:06:24;10.20;99.90
6102;DHT22;3081;50.584;7.032;2023-04-01T00:08:51;10.20;99.90
6102;DHT22;3081;50.584;7.032;2023-04-01T00:11:20;10.20;99.90
6102;DHT22;3081;50.584;7.032;2023-04-01T00:13:47;10.20;99.90
6102;DHT22;3081;50.584;7.032;2023-04-01T00:16:14;10.20;99.90
6102;DHT22;3081;50.584;7.032;2023-04-01T00:18:41;10.20;99.90
6102;DHT22;3081;50.584;7.032;2023-04-01T00:21:08;10.20;99.90
6102;DHT22;3081;50.584;7.032;2023-04-01T00:23:35;10.10;99.90
6102;DHT22;3081;50.584;7.032;2023-04-01T00:26:03;10.20;99.90
6102;DHT22;3081;50.584;7.032;2023-04-01T00:28:33;10.10;99.90
6102;DHT22;3081;50.584;7.032;2023-04-01T00:31:05;10.10;99.90
6102;DHT22;3081;50.584;7.032;2023-04-01T00:33:32;10.10;99.90
6102;DHT22;3081;50.584;7.032;2023-04-01T00:36:06;10.20;99.90
6102;DHT22;3081;50.584;7.032;2023-04-01T00:38:34;10.20;99.90
6102;DHT22;3081;50.584;7.032;2023-04-01T00:41:00;10.20;99.90
6102;DHT22;3081;50.584;7.032;2023-04-01T00:43:27;10.20;99.90
6102;DHT22;3081;50.584;7.032;2023-04-01T00:45:56;10.20;99.90
6102;DHT22;3081;50.584;7.032;2023-04-01T00:48:26;10.20;99.90
6102;DHT22;3081;50.584;7.032;2023-04-01T00:50:59;10.20;99.90
6102;DHT22;3081;50.584;7.032;2023-04-01T00:53:28;10.20;99.90
6102;DHT22;3081;50.584;7.032;2023-04-01T00:56:00;10.10;99.90
6102;DHT22;3081;50.584;7.032;2023-04-01T00:58:30;10.10;99.90
6102;DHT22;3081;50.584;7.032;2023-04-01T01:00:59;10.10;99.90
6102;DHT22;3081;50.584;7.032;2023-04-01T01:03:27;10.10;99.90
6102;DHT22;3081;50.584;7.032;2023-04-01T01:06:24;10.20;99.90
6102;DHT22;3081;50.584;7.032;2023-04-01T01:09:07;10.10;99.90
6102;DHT22;3081;50.584;7.032;2023-04-01T01:11:39;10.10;99.90
6102;DHT22;3081;50.584;7.032;2023-04-01T01:14:14;10.10;99.90
6102;DHT22;3081;50.584;7.032;2023-04-01T01:16:46;10.00;99.90
6102;DHT22;3081;50.584;7.032;2023-04-01T01:19:32;10.00;99.90
6102;DHT22;3081;50.584;7.032;2023-04-01T01:22:22;10.00;99.90
6102;DHT22;3081;50.584;7.032;2023-04-01T01:25:09;10.00;99.90
6102;DHT22;3081;50.584;7.032;2023-04-01T01:27:40;9.90;99.90
6102;DHT22;3081;50.584;7.032;2023-04-01T01:30:18;10.00;99.90
6102;DHT22;3081;50.584;7.032;2023-04-01T01:33:09;9.90;99.90
6102;DHT22;3081;50.584;7.032;2023-04-01T01:35:43;9.90;99.90
6102;DHT22;3081;50.584;7.032;2023-04-01T01:38:14;9.90;99.90
6102;DHT22;3081;50.584;7.032;2023-04-01T01:40:44;9.90;99.90
6102;DHT22;3081;50.584;7.032;2023-04-01T01:43:15;9.90;99.90
6102;DHT22;3081;50.584;7.032;2023-04-01T01:45:46;9.90;99.90
6102;DHT22;3081;50.584;7.032;2023-04-01T01:48:16;9.90;99.90
6102;DHT22;3081;50.584;7.032;2023-04-01T01:50:45;9.90;99.90
6102;DHT22;3081;50.584;7.032;2023-04-01T01:53:14;9.80;99.90
6102;DHT22;3081;50.584;7.032;2023-04-01T01:55:43;9.80;99.90
6102;DHT22;3081;50.584;7.032;2023-04-01T01:58:14;9.80;99.90
6102;DHT22;3081;50.584;7.032;2023-04-01T02:00:44;9.80;99.90
6102;DHT22;3081;50.584;7.032;2023-04-01T02:03:14;9.80;99.90
6102;DHT22;3081;50.584;7.032;2023-04-01T02:05:42;9.80;99.90
6102;DHT22;3081;50.584;7.032;2023-04-01T02:08:14;9.80;99.90
6102;DHT22;3081;50.584;7.032;2023-04-01T02:10:46;9.80;99.90
6102;DHT22;3081;50.584;7.032;2023-04-01T02:13:20;9.90;99.90
6102;DHT22;3081;50.584;7.032;2023-04-01T02:15:50;9.90;99.90
6102;DHT22;3081;50.584;7.032;2023-04-01T02:18:21;9.80;99.90
6102;DHT22;3081;50.584;7.032;2023-04-01T02:20:49;9.90;99.90
6102;DHT22;3081;50.584;7.032;2023-04-01T02:23:18;9.90;99.90
6102;DHT22;3081;50.584;7.032;2023-04-01T02:25:45;9.90;99.90
6102;DHT22;3081;50.584;7.032;2023-04-01T02:28:14;9.90;99.90
6102;DHT22;3081;50.584;7.032;2023-04-01T02:30:45;9.90;99.90
6102;DHT22;3081;50.584;7.032;2023-04-01T02:33:13;9.90;99.90
6102;DHT22;3081;50.584;7.032;2023-04-01T02:35:40;9.90;99.90
6102;DHT22;3081;50.584;7.032;2023-04-01T02:38:07;9.90;99.90
6102;DHT22;3081;50.584;7.032;2023-04-01T02:40:44;9.90;99.90
6102;DHT22;3081;50.584;7.032;2023-04-01T02:43:12;9.90;99.90
6102;DHT22;3081;50.584;7.032;2023-04-01T02:45:38;9.90;99.90
6102;DHT22;3081;50.584;7.032;2023-04-01T02:48:06;9.90;99.90
6102;DHT22;3081;50.584;7.032;2023-04-01T02:50:33;9.90;99.90
6102;DHT22;3081;50.584;7.032;2023-04-01T02:53:01;9.90;99.90
6102;DHT22;3081;50.584;7.032;2023-04-01T02:55:29;9.90;99.90
6102;DHT22;3081;50.584;7.032;2023-04-01T02:57:57;9.90;99.90
6102;DHT22;3081;50.584;7.032;2023-04-01T03:00:25;9.90;99.90
6102;DHT22;3081;50.584;7.032;2023-04-01T03:02:52;9.90;99.90
6102;DHT22;3081;50.584;7.032;2023-04-01T03:05:19;9.90;99.90
6102;DHT22;3081;50.584;7.032;2023-04-01T03:07:46;9.80;99.90
6102;DHT22;3081;50.584;7.032;2023-04-01T03:10:13;9.80;99.90
6102;DHT22;3081;50.584;7.032;2023-04-01T03:12:41;9.80;99.90
6102;DHT22;3081;50.584;7.032;2023-04-01T03:15:11;9.80;99.90
6102;DHT22;3081;50.584;7.032;2023-04-01T03:17:40;9.80;99.90
6102;DHT22;3081;50.584;7.032;2023-04-01T03:20:08;9.80;99.90
6102;DHT22;3081;50.584;7.032;2023-04-01T03:22:36;9.80;99.90
6102;DHT22;3081;50.584;7.032;2023-04-01T03:25:05;9.80;99.90
6102;DHT22;3081;50.584;7.032;2023-04-01T03:27:33;9.80;99.90
6102;DHT22;3081;50.584;7.032;2023-04-01T03:30:00;9.80;99.90
6102;DHT22;3081;50.584;7.032;2023-04-01T03:32:28;9.90;99.90
6102;DHT22;3081;50.584;7.032;2023-04-01T03:34:55;9.80;99.90
6102;DHT22;3081;50.584;7.032;2023-04-01T03:37:22;9.80;99.90
6102;DHT22;3081;50.584;7.032;2023-04-01T03:39:50;9.80;99.90
6102;DHT22;3081;50.584;7.032;2023-04-01T03:42:17;9.80;99.90
6102;DHT22;3081;50.584;7.032;2023-04-01T03:44:44;9.80;99.90
6102;DHT22;3081;50.584;7.032;2023-04-01T03:47:11;9.80;99.90
6102;DHT22;3081;50.584;7.032;2023-04-01T03:49:39;9.80;99.90
6102;DHT22;3081;50.584;7.032;2023-04-01T03:52:09;9.80;99.90
6102;DHT22;3081;50.584;7.032;2023-04-01T03:54:36;9.80;99.90
6102;DHT22;3081;50.584;7.032;2023-04-01T03:57:03;9.80;99.90
6102;DHT22;3081;50.584;7.032;2023-04-01T03:59:30;9.80;99.90
6102;DHT22;3081;50.584;7.032;2023-04-01T04:01:57;9.80;99.90
6102;DHT22;3081;50.584;7.032;2023-04-01T04:04:24;9.80;99.90
6102;DHT22;3081;50.584;7.032;2023-04-01T04:06:53;9.80;99.90
6102;DHT22;3081;50.584;7.032;2023-04-01T04:09:20;9.70;99.90
6102;DHT22;3081;50.584;7.032;2023-04-01T04:11:47;9.80;99.90
6102;DHT22;3081;50.584;7.032;2023-04-01T04:14:14;9.70;99.90
6102;DHT22;3081;50.584;7.032;2023-04-01T04:16:41;9.70;99.90
6102;DHT22;3081;50.584;7.032;2023-04-01T04:19:08;9.70;99.90
6102;DHT22;3081;50.584;7.032;2023-04-01T04:21:35;9.70;99.90
6102;DHT22;3081;50.584;7.032;2023-04-01T04:24:04;9.70;99.90
6102;DHT22;3081;50.584;7.032;2023-04-01T04:26:31;9.70;99.90
6102;DHT22;3081;50.584;7.032;2023-04-01T04:28:58;9.70;99.90
6102;DHT22;3081;50.584;7.032;2023-04-01T04:31:25;9.70;99.90
6102;DHT22;3081;50.584;7.032;2023-04-01T04:33:52;9.70;99.90
6102;DHT22;3081;50.584;7.032;2023-04-01T04:36:21;9.70;99.90
6102;DHT22;3081;50.584;7.032;2023-04-01T04:38:48;9.60;99.90
6102;DHT22;3081;50.584;7.032;2023-04-01T04:41:18;9.60;99.90
6102;DHT22;3081;50.584;7.032;2023-04-01T04:43:49;9.60;99.90
6102;DHT22;3081;50.584;7.032;2023-04-01T04:46:18;9.60;99.90
6102;DHT22;3081;50.584;7.032;2023-04-01T04:48:45;9.60;99.90
6102;DHT22;3081;50.584;7.032;2023-04-01T04:51:15;9.60;99.90
6102;DHT22;3081;50.584;7.032;2023-04-01T04:53:43;9.60;99.90
6102;DHT22;3081;50.584;7.032;2023-04-01T04:56:10;9.60;99.90
6102;DHT22;3081;50.584;7.032;2023-04-01T04:58:39;9.60;99.90
6102;DHT22;3081;50.584;7.032;2023-04-01T05:01:07;9.60;99.90
6102;DHT22;3081;50.584;7.032;2023-04-01T05:03:34;9.70;99.90
6102;DHT22;3081;50.584;7.032;2023-04-01T05:06:01;9.70;99.90
6102;DHT22;3081;50.584;7.032;2023-04-01T05:08:28;9.70;99.90
6102;DHT22;3081;50.584;7.032;2023-04-01T05:10:55;9.70;99.90
6102;DHT22;3081;50.584;7.032;2023-04-01T05:13:22;9.70;99.90
6102;DHT22;3081;50.584;7.032;2023-04-01T05:15:51;9.70;99.90
6102;DHT22;3081;50.584;7.032;2023-04-01T05:18:18;9.70;99.90
6102;DHT22;3081;50.584;7.032;2023-04-01T05:20:49;9.70;99.90
6102;DHT22;3081;50.584;7.032;2023-04-01T05:23:16;9.70;99.90
6102;DHT22;3081;50.584;7.032;2023-04-01T05:25:43;9.70;99.90
6102;DHT22;3081;50.584;7.032;2023-04-01T05:28:11;9.70;99.90
6102;DHT22;3081;50.584;7.032;2023-04-01T05:30:40;9.70;99.90
6102;DHT22;3081;50.584;7.032;2023-04-01T05:33:09;9.70;99.90
6102;DHT22;3081;50.584;7.032;2023-04-01T05:35:36;9.70;99.90
6102;DHT22;3081;50.584;7.032;2023-04-01T05:38:03;9.70;99.90
6102;DHT22;3081;50.584;7.032;2023-04-01T05:40:31;10.30;99.90
6102;DHT22;3081;50.584;7.032;2023-04-01T05:42:58;9.70;99.90
6102;DHT22;3081;50.584;7.032;2023-04-01T05:45:25;9.80;99.90
6102;DHT22;3081;50.584;7.032;2023-04-01T05:47:54;9.80;99.90
6102;DHT22;3081;50.584;7.032;2023-04-01T05:50:22;9.80;99.90
6102;DHT22;3081;50.584;7.032;2023-04-01T05:52:49;9.80;99.90
6102;DHT22;3081;50.584;7.032;2023-04-01T05:55:16;9.80;99.90
6102;DHT22;3081;50.584;7.032;2023-04-01T05:57:44;9.80;99.90
6102;DHT22;3081;50.584;7.032;2023-04-01T06:00:13;9.90;99.90
6102;DHT22;3081;50.584;7.032;2023-04-01T06:02:40;9.90;99.90
6102;DHT22;3081;50.584;7.032;2023-04-01T06:05:15;9.90;99.90
6102;DHT22;3081;50.584;7.032;2023-04-01T06:07:45;10.00;99.90
6102;DHT22;3081;50.584;7.032;2023-04-01T06:10:17;10.00;99.90
6102;DHT22;3081;50.584;7.032;2023-04-01T06:12:56;10.10;99.90
6102;DHT22;3081;50.584;7.032;2023-04-01T06:15:35;10.20;99.90
6102;DHT22;3081;50.584;7.032;2023-04-01T06:18:30;10.20;99.90
6102;DHT22;3081;50.584;7.032;2023-04-01T06:21:06;10.30;99.90
6102;DHT22;3081;50.584;7.032;2023-04-01T06:23:49;10.40;99.90
6102;DHT22;3081;50.584;7.032;2023-04-01T06:26:26;10.50;99.90
6102;DHT22;3081;50.584;7.032;2023-04-01T06:32:22;10.50;99.90
6102;DHT22;3081;50.584;7.032;2023-04-01T06:35:11;10.60;99.90
6102;DHT22;3081;50.584;7.032;2023-04-01T06:38:05;10.70;99.90
6102;DHT22;3081;50.584;7.032;2023-04-01T06:40:48;10.70;99.90
6102;DHT22;3081;50.584;7.032;2023-04-01T06:43:25;10.70;99.90
6102;DHT22;3081;50.584;7.032;2023-04-01T06:46:02;10.80;99.90
6102;DHT22;3081;50.584;7.032;2023-04-01T06:48:46;10.80;99.90
6102;DHT22;3081;50.584;7.032;2023-04-01T06:51:23;10.80;99.90
6102;DHT22;3081;50.584;7.032;2023-04-01T06:53:56;10.70;99.90
6102;DHT22;3081;50.584;7.032;2023-04-01T06:56:28;10.70;99.90
6102;DHT22;3081;50.584;7.032;2023-04-01T06:58:58;10.80;99.90
6102;DHT22;3081;50.584;7.032;2023-04-01T07:01:33;10.90;99.90
6102;DHT22;3081;50.584;7.032;2023-04-01T07:04:05;11.10;99.90
6102;DHT22;3081;50.584;7.032;2023-04-01T07:06:36;11.10;99.90
6102;DHT22;3081;50.584;7.032;2023-04-01T07:09:09;11.30;99.90
6102;DHT22;3081;50.584;7.032;2023-04-01T07:11:39;11.30;99.90
6102;DHT22;3081;50.584;7.032;2023-04-01T07:14:13;11.40;99.90
6102;DHT22;3081;50.584;7.032;2023-04-01T07:16:46;11.60;99.90
6102;DHT22;3081;50.584;7.032;2023-04-01T07:19:18;11.70;99.90
6102;DHT22;3081;50.584;7.032;2023-04-01T07:21:49;11.80;99.90
6102;DHT22;3081;50.584;7.032;2023-04-01T07:24:23;11.90;99.90
6102;DHT22;3081;50.584;7.032;2023-04-01T07:26:55;11.80;99.90
6102;DHT22;3081;50.584;7.032;2023-04-01T07:29:23;11.80;99.90
6102;DHT22;3081;50.584;7.032;2023-04-01T07:32:13;11.80;99.90
6102;DHT22;3081;50.584;7.032;2023-04-01T07:34:50;11.80;99.90
6102;DHT22;3081;50.584;7.032;2023-04-01T07:37:22;11.70;99.90
6102;DHT22;3081;50.584;7.032;2023-04-01T07:40:01;11.40;99.90
6102;DHT22;3081;50.584;7.032;2023-04-01T07:42:39;11.10;99.90
6102;DHT22;3081;50.584;7.032;2023-04-01T07:45:16;11.00;99.90
6102;DHT22;3081;50.584;7.032;2023-04-01T07:47:59;11.10;99.90
6102;DHT22;3081;50.584;7.032;2023-04-01T07:50:28;11.20;99.90
6102;DHT22;3081;50.584;7.032;2023-04-01T07:53:04;11.30;99.90
6102;DHT22;3081;50.584;7.032;2023-04-01T07:55:39;11.40;99.90
6102;DHT22;3081;50.584;7.032;2023-04-01T07:58:15;11.50;99.90
6102;DHT22;3081;50.584;7.032;2023-04-01T08:00:48;11.60;99.90
6102;DHT22;3081;50.584;7.032;2023-04-01T08:03:38;11.70;99.90
6102;DHT22;3081;50.584;7.032;2023-04-01T08:06:13;11.70;99.90
6102;DHT22;3081;50.584;7.032;2023-04-01T08:08:50;11.90;99.90
6102;DHT22;3081;50.584;7.032;2023-04-01T08:11:28;12.00;99.90
6102;DHT22;3081;50.584;7.032;2023-04-01T08:14:05;12.10;99.90
6102;DHT22;3081;50.584;7.032;2023-04-01T08:16:41;12.20;99.90
6102;DHT22;3081;50.584;7.032;2023-04-01T08:19:19;12.30;99.90
6102;DHT22;3081;50.584;7.032;2023-04-01T08:21:51;12.30;99.90
6102;DHT22;3081;50.584;7.032;2023-04-01T08:24:24;12.40;99.90
6102;DHT22;3081;50.584;7.032;2023-04-01T08:26:54;12.30;99.90
6102;DHT22;3081;50.584;7.032;2023-04-01T08:29:26;12.40;99.90
6102;DHT22;3081;50.584;7.032;2023-04-01T08:32:01;12.50;99.90
6102;DHT22;3081;50.584;7.032;2023-04-01T08:34:34;12.60;99.90
6102;DHT22;3081;50.584;7.032;2023-04-01T08:37:05;12.80;99.90
6102;DHT22;3081;50.584;7.032;2023-04-01T08:39:35;12.90;99.90
6102;DHT22;3081;50.584;7.032;2023-04-01T08:42:29;12.90;99.90
6102;DHT22;3081;50.584;7.032;2023-04-01T08:45:19;13.00;99.90
6102;DHT22;3081;50.584;7.032;2023-04-01T08:48:12;12.90;99.90
6102;DHT22;3081;50.584;7.032;2023-04-01T08:51:02;12.80;99.90
6102;DHT22;3081;50.584;7.032;2023-04-01T08:53:44;12.90;99.90
6102;DHT22;3081;50.584;7.032;2023-04-01T08:56:18;13.00;99.90
6102;DHT22;3081;50.584;7.032;2023-04-01T08:59:03;13.00;99.90
6102;DHT22;3081;50.584;7.032;2023-04-01T09:01:58;13.00;99.90
6102;DHT22;3081;50.584;7.032;2023-04-01T09:04:48;13.10;99.90
6102;DHT22;3081;50.584;7.032;2023-04-01T09:07:28;13.20;99.90
6102;DHT22;3081;50.584;7.032;2023-04-01T09:10:35;13.30;99.90
6102;DHT22;3081;50.584;7.032;2023-04-01T09:16:13;13.80;99.90
6102;DHT22;3081;50.584;7.032;2023-04-01T09:19:13;13.80;99.90
6102;DHT22;3081;50.584;7.032;2023-04-01T09:25:15;13.70;99.90
6102;DHT22;3081;50.584;7.032;2023-04-01T09:27:55;13.60;99.90
6102;DHT22;3081;50.584;7.032;2023-04-01T09:30:39;13.70;99.90
6102;DHT22;3081;50.584;7.032;2023-04-01T09:36:17;13.50;99.90
6102;DHT22;3081;50.584;7.032;2023-04-01T09:38:56;13.40;99.90
6102;DHT22;3081;50.584;7.032;2023-04-01T09:41:30;13.60;99.90
6102;DHT22;3081;50.584;7.032;2023-04-01T09:44:02;13.60;99.90
6102;DHT22;3081;50.584;7.032;2023-04-01T09:46:45;13.50;99.90
6102;DHT22;3081;50.584;7.032;2023-04-01T09:49:26;13.40;99.90
6102;DHT22;3081;50.584;7.032;2023-04-01T09:52:12;13.30;99.90
6102;DHT22;3081;50.584;7.032;2023-04-01T10:01:19;12.50;99.90
6102;DHT22;3081;50.584;7.032;2023-04-01T10:04:17;12.40;99.90
6102;DHT22;3081;50.584;7.032;2023-04-01T10:07:08;12.50;99.90
6102;DHT22;3081;50.584;7.032;2023-04-01T10:10:06;12.50;99.90
6102;DHT22;3081;50.584;7.032;2023-04-01T10:13:14;12.40;99.90
6102;DHT22;3081;50.584;7.032;2023-04-01T10:16:09;12.40;99.90
6102;DHT22;3081;50.584;7.032;2023-04-01T10:25:12;12.10;99.90
6102;DHT22;3081;50.584;7.032;2023-04-01T10:27:50;12.20;99.90
6102;DHT22;3081;50.584;7.032;2023-04-01T10:36:50;12.40;99.90
6102;DHT22;3081;50.584;7.032;2023-04-01T10:39:48;12.60;99.90
6102;DHT22;3081;50.584;7.032;2023-04-01T10:52:06;13.70;99.90
6102;DHT22;3081;50.584;7.032;2023-04-01T10:54:46;13.70;99.90
6102;DHT22;3081;50.584;7.032;2023-04-01T10:57:47;13.60;99.90
6102;DHT22;3081;50.584;7.032;2023-04-01T11:00:39;13.70;99.90
6102;DHT22;3081;50.584;7.032;2023-04-01T11:06:50;13.80;99.90
6102;DHT22;3081;50.584;7.032;2023-04-01T11:13:02;13.80;99.90
6102;DHT22;3081;50.584;7.032;2023-04-01T11:16:02;13.90;99.90
6102;DHT22;3081;50.584;7.032;2023-04-01T11:19:02;13.90;99.90
6102;DHT22;3081;50.584;7.032;2023-04-01T11:21:55;13.90;99.90
6102;DHT22;3081;50.584;7.032;2023-04-01T11:24:38;13.80;99.90
6102;DHT22;3081;50.584;7.032;2023-04-01T11:27:23;13.80;99.90
6102;DHT22;3081;50.584;7.032;2023-04-01T11:30:06;13.90;99.90
6102;DHT22;3081;50.584;7.032;2023-04-01T11:32:43;13.90;99.90
6102;DHT22;3081;50.584;7.032;2023-04-01T11:35:40;13.80;99.90
6102;DHT22;3081;50.584;7.032;2023-04-01T11:38:26;13.80;99.90
6102;DHT22;3081;50.584;7.032;2023-04-01T11:41:01;13.60;99.90
6102;DHT22;3081;50.584;7.032;2023-04-01T11:43:38;13.50;99.90
6102;DHT22;3081;50.584;7.032;2023-04-01T11:46:11;13.60;99.90
6102;DHT22;3081;50.584;7.032;2023-04-01T11:48:48;13.60;99.90
6102;DHT22;3081;50.584;7.032;2023-04-01T11:51:38;13.70;99.90
6102;DHT22;3081;50.584;7.032;2023-04-01T11:54:19;14.00;99.90
6102;DHT22;3081;50.584;7.032;2023-04-01T11:57:06;14.30;99.90
6102;DHT22;3081;50.584;7.032;2023-04-01T11:59:55;14.50;99.90
6102;DHT22;3081;50.584;7.032;2023-04-01T12:02:31;14.40;99.90
6102;DHT22;3081;50.584;7.032;2023-04-01T12:08:12;14.30;99.90
6102;DHT22;3081;50.584;7.032;2023-04-01T12:10:45;14.10;99.90
6102;DHT22;3081;50.584;7.032;2023-04-01T12:13:22;14.00;99.90
6102;DHT22;3081;50.584;7.032;2023-04-01T12:16:22;13.60;99.90
6102;DHT22;3081;50.584;7.032;2023-04-01T12:18:57;13.20;99.90
6102;DHT22;3081;50.584;7.032;2023-04-01T12:21:30;12.80;99.90
6102;DHT22;3081;50.584;7.032;2023-04-01T12:24:15;12.70;99.90
6102;DHT22;3081;50.584;7.032;2023-04-01T12:26:58;12.80;99.90
6102;DHT22;3081;50.584;7.032;2023-04-01T12:29:51;13.00;99.90
6102;DHT22;3081;50.584;7.032;2023-04-01T12:32:26;13.40;99.90
6102;DHT22;3081;50.584;7.032;2023-04-01T12:35:20;13.60;99.90
6102;DHT22;3081;50.584;7.032;2023-04-01T12:37:58;13.60;99.90
6102;DHT22;3081;50.584;7.032;2023-04-01T12:40:44;13.60;99.90
6102;DHT22;3081;50.584;7.032;2023-04-01T12:43:28;13.50;99.90
6102;DHT22;3081;50.584;7.032;2023-04-01T12:46:05;13.40;99.90
6102;DHT22;3081;50.584;7.032;2023-04-01T12:57:24;13.60;99.90
6102;DHT22;3081;50.584;7.032;2023-04-01T13:00:11;13.50;99.90
6102;DHT22;3081;50.584;7.032;2023-04-01T13:02:51;13.50;99.90
6102;DHT22;3081;50.584;7.032;2023-04-01T13:05:43;13.60;99.90
6102;DHT22;3081;50.584;7.032;2023-04-01T13:08:30;13.30;99.90
6102;DHT22;3081;50.584;7.032;2023-04-01T13:11:17;13.00;99.90
6102;DHT22;3081;50.584;7.032;2023-04-01T13:16:49;13.00;99.90
6102;DHT22;3081;50.584;7.032;2023-04-01T13:19:23;13.10;99.90
6102;DHT22;3081;50.584;7.032;2023-04-01T13:21:56;13.10;99.90
6102;DHT22;3081;50.584;7.032;2023-04-01T13:24:36;13.10;99.90
6102;DHT22;3081;50.584;7.032;2023-04-01T13:27:11;13.10;99.90
6102;DHT22;3081;50.584;7.032;2023-04-01T13:29:45;13.20;99.90
6102;DHT22;3081;50.584;7.032;2023-04-01T13:32:20;13.20;99.90
6102;DHT22;3081;50.584;7.032;2023-04-01T13:34:56;13.40;99.90
6102;DHT22;3081;50.584;7.032;2023-04-01T13:37:39;13.60;99.90
6102;DHT22;3081;50.584;7.032;2023-04-01T13:40:23;13.70;99.90
6102;DHT22;3081;50.584;7.032;2023-04-01T13:42:54;14.00;99.90
6102;DHT22;3081;50.584;7.032;2023-04-01T13:45:25;14.40;99.90
6102;DHT22;3081;50.584;7.032;2023-04-01T13:56:44;14.40;99.90
6102;DHT22;3081;50.584;7.032;2023-04-01T14:02:44;14.10;99.90
6102;DHT22;3081;50.584;7.032;2023-04-01T14:05:25;14.20;99.90
6102;DHT22;3081;50.584;7.032;2023-04-01T14:08:00;14.70;99.90
6102;DHT22;3081;50.584;7.032;2023-04-01T14:10:38;15.40;99.90
6102;DHT22;3081;50.584;7.032;2023-04-01T14:13:14;16.50;99.90
6102;DHT22;3081;50.584;7.032;2023-04-01T14:16:11;16.70;99.90
6102;DHT22;3081;50.584;7.032;2023-04-01T14:18:53;16.40;99.90
6102;DHT22;3081;50.584;7.032;2023-04-01T14:21:32;15.70;99.90
6102;DHT22;3081;50.584;7.032;2023-04-01T14:24:17;15.20;99.90
6102;DHT22;3081;50.584;7.032;2023-04-01T14:30:04;15.10;99.90
6102;DHT22;3081;50.584;7.032;2023-04-01T14:32:43;15.40;99.90
6102;DHT22;3081;50.584;7.032;2023-04-01T14:35:22;15.20;99.90
6102;DHT22;3081;50.584;7.032;2023-04-01T14:38:17;14.70;99.90
6102;DHT22;3081;50.584;7.032;2023-04-01T14:40:56;14.30;99.90
6102;DHT22;3081;50.584;7.032;2023-04-01T14:49:35;14.50;99.90
6102;DHT22;3081;50.584;7.032;2023-04-01T14:52:11;14.40;99.90
6102;DHT22;3081;50.584;7.032;2023-04-01T14:54:42;14.20;99.90
6102;DHT22;3081;50.584;7.032;2023-04-01T14:57:11;14.20;99.90
6102;DHT22;3081;50.584;7.032;2023-04-01T14:59:47;14.40;99.90
6102;DHT22;3081;50.584;7.032;2023-04-01T15:02:38;14.50;99.90
6102;DHT22;3081;50.584;7.032;2023-04-01T15:05:23;14.50;99.90
6102;DHT22;3081;50.584;7.032;2023-04-01T15:08:13;14.20;99.90
6102;DHT22;3081;50.584;7.032;2023-04-01T15:10:58;13.90;99.90
6102;DHT22;3081;50.584;7.032;2023-04-01T15:13:49;13.60;99.90
6102;DHT22;3081;50.584;7.032;2023-04-01T15:16:25;13.50;99.90
6102;DHT22;3081;50.584;7.032;2023-04-01T15:19:01;13.50;99.90
6102;DHT22;3081;50.584;7.032;2023-04-01T15:21:48;13.60;99.90
6102;DHT22;3081;50.584;7.032;2023-04-01T15:24:22;13.60;99.90
6102;DHT22;3081;50.584;7.032;2023-04-01T15:27:14;13.60;99.90
6102;DHT22;3081;50.584;7.032;2023-04-01T15:32:45;13.10;99.90
6102;DHT22;3081;50.584;7.032;2023-04-01T15:35:21;12.60;99.90
6102;DHT22;3081;50.584;7.032;2023-04-01T15:37:55;12.40;99.90
6102;DHT22;3081;50.584;7.032;2023-04-01T15:40:26;12.30;99.90
6102;DHT22;3081;50.584;7.032;2023-04-01T15:43:07;12.30;99.90
6102;DHT22;3081;50.584;7.032;2023-04-01T15:45:45;12.40;99.90
6102;DHT22;3081;50.584;7.032;2023-04-01T15:48:24;12.30;99.90
6102;DHT22;3081;50.584;7.032;2023-04-01T15:51:01;12.20;99.90
6102;DHT22;3081;50.584;7.032;2023-04-01T15:53:55;12.20;99.90
6102;DHT22;3081;50.584;7.032;2023-04-01T15:56:45;12.10;99.90
6102;DHT22;3081;50.584;7.032;2023-04-01T15:59:24;12.30;99.90
6102;DHT22;3081;50.584;7.032;2023-04-01T16:01:59;12.30;99.90
6102;DHT22;3081;50.584;7.032;2023-04-01T16:04:46;12.40;99.90
6102;DHT22;3081;50.584;7.032;2023-04-01T16:07:26;12.50;99.90
6102;DHT22;3081;50.584;7.032;2023-04-01T16:13:08;12.50;99.90
6102;DHT22;3081;50.584;7.032;2023-04-01T16:15:43;12.50;99.90
6102;DHT22;3081;50.584;7.032;2023-04-01T16:21:14;12.20;99.90
6102;DHT22;3081;50.584;7.032;2023-04-01T16:23:49;11.90;99.90
6102;DHT22;3081;50.584;7.032;2023-04-01T16:26:22;11.70;99.90
6102;DHT22;3081;50.584;7.032;2023-04-01T16:29:00;11.60;99.90
6102;DHT22;3081;50.584;7.032;2023-04-01T16:31:34;11.50;99.90
6102;DHT22;3081;50.584;7.032;2023-04-01T16:34:08;11.40;99.90
6102;DHT22;3081;50.584;7.032;2023-04-01T16:36:41;11.30;99.90
6102;DHT22;3081;50.584;7.032;2023-04-01T16:42:13;11.20;99.90
6102;DHT22;3081;50.584;7.032;2023-04-01T16:44:50;11.10;99.90
6102;DHT22;3081;50.584;7.032;2023-04-01T16:47:21;11.00;99.90
6102;DHT22;3081;50.584;7.032;2023-04-01T16:49:52;11.00;99.90
6102;DHT22;3081;50.584;7.032;2023-04-01T16:52:34;10.80;99.90
6102;DHT22;3081;50.584;7.032;2023-04-01T16:55:07;10.70;99.90
6102;DHT22;3081;50.584;7.032;2023-04-01T16:57:46;10.70;99.90
6102;DHT22;3081;50.584;7.032;2023-04-01T17:00:23;10.50;99.90
6102;DHT22;3081;50.584;7.032;2023-04-01T17:03:01;10.50;99.90
6102;DHT22;3081;50.584;7.032;2023-04-01T17:05:54;10.50;99.90
6102;DHT22;3081;50.584;7.032;2023-04-01T17:08:36;10.50;99.90
6102;DHT22;3081;50.584;7.032;2023-04-01T17:11:10;10.40;99.90
6102;DHT22;3081;50.584;7.032;2023-04-01T17:13:46;10.40;99.90
6102;DHT22;3081;50.584;7.032;2023-04-01T17:16:43;10.50;99.90
6102;DHT22;3081;50.584;7.032;2023-04-01T17:19:18;10.50;99.90
6102;DHT22;3081;50.584;7.032;2023-04-01T17:21:57;10.50;99.90
6102;DHT22;3081;50.584;7.032;2023-04-01T17:24:37;10.50;99.90
6102;DHT22;3081;50.584;7.032;2023-04-01T17:27:18;10.50;99.90
6102;DHT22;3081;50.584;7.032;2023-04-01T17:30:03;10.40;99.90
6102;DHT22;3081;50.584;7.032;2023-04-01T17:32:49;10.40;99.90
6102;DHT22;3081;50.584;7.032;2023-04-01T17:35:25;10.40;99.90
6102;DHT22;3081;50.584;7.032;2023-04-01T17:38:03;10.30;99.90
6102;DHT22;3081;50.584;7.032;2023-04-01T17:40:39;10.30;99.90
6102;DHT22;3081;50.584;7.032;2023-04-01T17:43:16;10.20;99.90
6102;DHT22;3081;50.584;7.032;2023-04-01T17:45:51;10.20;99.90
6102;DHT22;3081;50.584;7.032;2023-04-01T17:48:29;10.10;99.90
6102;DHT22;3081;50.584;7.032;2023-04-01T17:51:22;10.10;99.90
6102;DHT22;3081;50.584;7.032;2023-04-01T17:53:58;10.00;99.90
6102;DHT22;3081;50.584;7.032;2023-04-01T17:56:37;10.00;99.90
6102;DHT22;3081;50.584;7.032;2023-04-01T17:59:16;9.90;99.90
6102;DHT22;3081;50.584;7.032;2023-04-01T18:01:51;9.90;99.90
6102;DHT22;3081;50.584;7.032;2023-04-01T18:04:42;9.90;99.90
6102;DHT22;3081;50.584;7.032;2023-04-01T18:07:52;9.90;99.90
6102;DHT22;3081;50.584;7.032;2023-04-01T18:10:28;9.80;99.90
6102;DHT22;3081;50.584;7.032;2023-04-01T18:13:29;9.80;99.90
6102;DHT22;3081;50.584;7.032;2023-04-01T18:16:07;9.70;99.90
6102;DHT22;3081;50.584;7.032;2023-04-01T18:18:47;9.70;99.90
6102;DHT22;3081;50.584;7.032;2023-04-01T18:21:22;9.70;99.90
6102;DHT22;3081;50.584;7.032;2023-04-01T18:23:56;9.70;99.90
6102;DHT22;3081;50.584;7.032;2023-04-01T18:26:28;9.70;99.90
6102;DHT22;3081;50.584;7.032;2023-04-01T18:28:59;9.70;99.90
6102;DHT22;3081;50.584;7.032;2023-04-01T18:31:34;9.70;99.90
6102;DHT22;3081;50.584;7.032;2023-04-01T18:34:08;9.80;99.90
6102;DHT22;3081;50.584;7.032;2023-04-01T18:36:46;9.70;99.90
6102;DHT22;3081;50.584;7.032;2023-04-01T18:39:17;9.70;99.90
6102;DHT22;3081;50.584;7.032;2023-04-01T18:41:54;9.80;99.90